1923 NOT_NAMED (1923103S21156)


IBTrACS version v04r00. Visit IBTrACS website for data access.
Please direct all questions to the IBTrACS Q and A forum

Storm track - Intensity - Wind Radii - Intensity Data - Source Data - All data

Summary Information

Storm ID 1923103S21156
Start Apr 12 23Z
End Apr 16 23Z
ATCF IDs
Track status Best track data.

Storm track plot

Map of storm track

Intensity plots

No Intensity information for this storm


Radial wind information

No radial wind information for this storm


Position and Intensity Table

BASIN ISO_TIME_________ NATURE LAT LON
degrees north degrees east
SP 1923-04-12 23:00:00 NR -21.20 156.30
SP 1923-04-13 00:00:00 NR -21.31 156.24
SP 03:00:00 NR -21.65 156.07
SP 06:00:00 NR -22.01 155.92
SP 09:00:00 NR -22.40 155.83
SP 11:00:00 NR -22.70 155.80
SP 12:00:00 NR -22.86 155.80
SP 15:00:00 NR -23.37 155.85
SP 18:00:00 NR -23.89 155.96
SP 21:00:00 NR -24.39 156.10
SP 23:00:00 NR -24.70 156.20
SP 1923-04-14 00:00:00 NR -24.83 156.24
SP 03:00:00 NR -25.20 156.37
SP 06:00:00 NR -25.52 156.52
SP 09:00:00 NR -25.81 156.68
SP 11:00:00 NR -26.00 156.80
SP 12:00:00 NR -26.10 156.85
SP 15:00:00 NR -26.40 157.02
SP 18:00:00 NR -26.68 157.21
SP 21:00:00 NR -26.94 157.43
SP 23:00:00 NR -27.10 157.60
SP 1923-04-15 00:00:00 NR -27.19 157.68
SP 03:00:00 NR -27.43 157.96
SP 06:00:00 NR -27.64 158.28
SP 09:00:00 NR -27.81 158.64
SP 11:00:00 NR -27.90 158.90
SP 12:00:00 NR -27.94 159.04
SP 15:00:00 NR -28.03 159.49
SP 18:00:00 NR -28.07 159.98
SP 21:00:00 NR -28.05 160.47
SP 23:00:00 NR -28.00 160.80
SP 1923-04-16 00:00:00 NR -27.97 160.95
SP 03:00:00 NR -27.86 161.41
SP 06:00:00 NR -27.68 161.86
SP 09:00:00 NR -27.47 162.31
SP 11:00:00 NR -27.30 162.60
SP 12:00:00 NR -27.21 162.74
SP 15:00:00 NR -26.93 163.18
SP 18:00:00 NR -26.63 163.60
SP 21:00:00 NR -26.31 164.02
SP 23:00:00 NR -26.10 164.30

Source Information

Agency Information
USA
TOKYO
CMA
HKO
NEWDELHI
REUNION
BOM
NADI
WELLINGTON
DS824
TD9636 cons_worldwide_trop_cyclone_18710101-19891231-006:Line=1501
TD9635
NEUMANN
MLC

All available IBTrACS Data

SEASON BASIN SUBBASIN ISO_TIME_________ NATURE LAT LON DIST2LAND LANDFALL IFLAG USA SSHS TD9636 LAT TD9636 LON TD9636 STAGE STORM SPEED STORM DIR
Year degrees north degrees east km km 1 degrees north degrees east kts degrees
1923 SP EA 1923-04-12 23:00:00 NR -21.20 156.30 506 497 __________O___ -1 -21.20 156.30 7 7 208
1923 SP EA 1923-04-13 00:00:00 NR -21.31 156.24 490 457 __________P___ -1 -21.31 156.24 7 7 206
1923 SP EA 03:00:00 NR -21.65 156.07 457 410 __________P___ -1 -21.65 156.07 7 8 203
1923 SP EA 06:00:00 NR -22.01 155.92 410 369 __________P___ -1 -22.01 155.92 7 8 196
1923 SP EA 09:00:00 NR -22.40 155.83 369 346 __________P___ -1 -22.40 155.83 7 8 189
1923 SP EA 11:00:00 NR -22.70 155.80 346 338 __________O___ -1 -22.70 155.80 7 9 182
1923 SP EA 12:00:00 NR -22.86 155.80 331 304 __________P___ -1 -22.86 155.80 7 10 176
1923 SP EA 15:00:00 NR -23.37 155.85 306 281 __________P___ -1 -23.37 155.85 7 10 172
1923 SP EA 18:00:00 NR -23.89 155.96 290 277 __________P___ -1 -23.89 155.96 7 11 167
1923 SP EA 21:00:00 NR -24.39 156.10 280 278 __________P___ -1 -24.39 156.10 7 10 165
1923 SP EA 23:00:00 NR -24.70 156.20 284 283 __________O___ -1 -24.70 156.20 7 9 163
1923 SP EA 1923-04-14 00:00:00 NR -24.83 156.24 283 282 __________P___ -1 -24.83 156.24 7 8 163
1923 SP EA 03:00:00 NR -25.20 156.37 302 302 __________P___ -1 -25.20 156.37 7 7 160
1923 SP EA 06:00:00 NR -25.52 156.52 316 316 __________P___ -1 -25.52 156.52 7 7 155
1923 SP EA 09:00:00 NR -25.81 156.68 343 343 __________P___ -1 -25.81 156.68 7 7 152
1923 SP EA 11:00:00 NR -26.00 156.80 358 358 __________O___ -1 -26.00 156.80 7 7 152
1923 SP EA 12:00:00 NR -26.10 156.85 371 371 __________P___ -1 -26.10 156.85 7 7 153
1923 SP EA 15:00:00 NR -26.40 157.02 384 384 __________P___ -1 -26.40 157.02 7 7 151
1923 SP EA 18:00:00 NR -26.68 157.21 392 392 __________P___ -1 -26.68 157.21 7 7 146
1923 SP EA 21:00:00 NR -26.94 157.43 401 397 __________P___ -1 -26.94 157.43 7 7 141
1923 SP EA 23:00:00 NR -27.10 157.60 412 412 __________O___ -1 -27.10 157.60 7 7 138
1923 SP EA 1923-04-15 00:00:00 NR -27.19 157.68 418 418 __________P___ -1 -27.19 157.68 7 7 136
1923 SP EA 03:00:00 NR -27.43 157.96 441 439 __________P___ -1 -27.43 157.96 7 7 131
1923 SP EA 06:00:00 NR -27.64 158.28 466 464 __________P___ -1 -27.64 158.28 7 7 123
1923 SP EA 09:00:00 NR -27.81 158.64 492 492 __________P___ -1 -27.81 158.64 7 7 115
1923 SP EA 11:00:00 NR -27.90 158.90 520 520 __________O___ -1 -27.90 158.90 7 8 110
1923 SP EA 12:00:00 NR -27.94 159.04 530 530 __________P___ -1 -27.94 159.04 7 8 104
1923 SP EA 15:00:00 NR -28.03 159.49 578 578 __________P___ -1 -28.03 159.49 7 8 99
1923 SP EA 18:00:00 NR -28.07 159.98 626 626 __________P___ -1 -28.07 159.98 7 9 91
1923 SP MM 21:00:00 NR -28.05 160.47 676 676 __________P___ -1 -28.05 160.47 7 9 85
1923 SP MM 23:00:00 NR -28.00 160.80 705 705 __________O___ -1 -28.00 160.80 7 9 80
1923 SP MM 1923-04-16 00:00:00 NR -27.97 160.95 725 725 __________P___ -1 -27.97 160.95 7 8 75
1923 SP MM 03:00:00 NR -27.86 161.41 765 760 __________P___ -1 -27.86 161.41 7 9 70
1923 SP MM 06:00:00 NR -27.68 161.86 754 712 __________P___ -1 -27.68 161.86 7 9 64
1923 SP MM 09:00:00 NR -27.47 162.31 712 677 __________P___ -1 -27.47 162.31 7 9 60
1923 SP MM 11:00:00 NR -27.30 162.60 677 662 __________O___ -1 -27.30 162.60 7 9 57
1923 SP MM 12:00:00 NR -27.21 162.74 662 607 __________P___ -1 -27.21 162.74 7 9 54
1923 SP MM 15:00:00 NR -26.93 163.18 607 557 __________P___ -1 -26.93 163.18 7 10 53
1923 SP MM 18:00:00 NR -26.63 163.60 557 508 __________P___ -1 -26.63 163.60 7 10 51
1923 SP MM 21:00:00 NR -26.31 164.02 508 474 __________P___ -1 -26.31 164.02 7 10 50
1923 SP MM 23:00:00 NR -26.10 164.30 474 __________O___ -1 -26.10 164.30 7 10 49